createdAt,value
2022-09-23T00:04:19.766Z,1012.8
2022-09-23T00:08:02.136Z,1012.8
2022-09-23T00:12:21.569Z,1012.8
2022-09-23T00:14:12.762Z,1012.8
2022-09-23T00:20:00.239Z,1012.8
2022-09-23T00:20:42.985Z,1012.8
2022-09-23T00:20:49.764Z,1012.8
2022-09-23T00:21:21.950Z,1012.8
2022-09-23T00:22:21.198Z,1012.8
2022-09-23T00:23:20.917Z,1012.7
2022-09-23T00:24:21.750Z,1012.7
2022-09-23T00:25:21.203Z,1012.8
2022-09-23T00:27:21.331Z,1012.7
2022-09-23T00:28:20.920Z,1012.7
2022-09-23T00:29:20.924Z,1012.7
2022-09-23T00:30:21.274Z,1012.7
2022-09-23T00:31:21.521Z,1012.7
2022-09-23T00:34:20.916Z,1012.7
2022-09-23T00:35:20.924Z,1012.7
2022-09-23T00:36:21.234Z,1012.7
2022-09-23T00:37:21.063Z,1012.7
2022-09-23T00:38:20.920Z,1012.7
2022-09-23T00:39:20.932Z,1012.7
2022-09-23T00:40:21.647Z,1012.7
2022-09-23T00:41:21.252Z,1012.6
2022-09-23T00:42:20.921Z,1012.6
2022-09-23T00:44:21.429Z,1012.6
2022-09-23T00:45:20.931Z,1012.6
2022-09-23T00:47:20.941Z,1012.6
2022-09-23T00:48:21.024Z,1012.6
2022-09-23T00:50:21.695Z,1012.6
2022-09-23T00:51:21.638Z,1012.6
2022-09-23T00:52:21.330Z,1012.6
2022-09-23T00:53:20.926Z,1012.6
2022-09-23T00:54:20.931Z,1012.6
2022-09-23T00:55:20.930Z,1012.6
2022-09-23T00:56:21.517Z,1012.6
2022-09-23T00:57:21.488Z,1012.6
2022-09-23T00:58:21.492Z,1012.6
2022-09-23T00:59:21.549Z,1012.6
2022-09-23T01:00:20.929Z,1012.6
2022-09-23T01:01:21.710Z,1012.5
2022-09-23T01:02:21.050Z,1012.5
2022-09-23T01:03:20.961Z,1012.5
2022-09-23T01:05:24.484Z,1012.5
2022-09-23T01:07:24.477Z,1012.5
2022-09-23T01:09:24.473Z,1012.5
2022-09-23T01:10:24.480Z,1012.5
2022-09-23T01:11:24.481Z,1012.5
2022-09-23T01:12:24.477Z,1012.5
2022-09-23T01:13:24.477Z,1012.4
2022-09-23T01:15:24.482Z,1012.4
2022-09-23T01:17:24.479Z,1012.4
2022-09-23T01:18:24.495Z,1012.4
2022-09-23T01:19:24.575Z,1012.4
2022-09-23T01:38:19.779Z,1012.4
2022-09-23T01:42:02.180Z,1012.3
2022-09-23T01:46:21.587Z,1012.3
2022-09-23T01:48:12.816Z,1012.3
2022-09-23T01:53:45.872Z,1012.3
2022-09-23T01:53:59.845Z,1012.3
2022-09-23T01:54:20.959Z,1012.2
2022-09-23T01:55:21.522Z,1012.3
2022-09-23T01:56:20.937Z,1012.3
2022-09-23T01:57:20.939Z,1012.3
2022-09-23T01:58:21.394Z,1012.3
2022-09-23T02:00:21.412Z,1012.2
2022-09-23T02:01:21.416Z,1012.2
2022-09-23T02:02:21.017Z,1012.2
2022-09-23T02:03:21.080Z,1012.2
2022-09-23T02:04:20.932Z,1012.2
2022-09-23T02:05:20.937Z,1012.2
2022-09-23T02:06:21.462Z,1012.2
2022-09-23T02:08:20.935Z,1012.2
2022-09-23T02:09:20.941Z,1012.3
2022-09-23T02:10:20.930Z,1012.2
2022-09-23T02:11:20.933Z,1012.2
2022-09-23T02:12:21.858Z,1012.2
2022-09-23T02:13:20.943Z,1012.2
2022-09-23T02:14:21.359Z,1012.2
2022-09-23T02:15:20.931Z,1012.1
2022-09-23T02:16:21.000Z,1012.1
2022-09-23T02:17:20.938Z,1012.1
2022-09-23T02:18:21.783Z,1012.1
2022-09-23T02:19:20.972Z,1012.1
2022-09-23T02:21:21.351Z,1012.1
2022-09-23T02:23:21.318Z,1012.1
2022-09-23T02:24:21.592Z,1012.1
2022-09-23T02:25:21.452Z,1012
2022-09-23T02:26:21.893Z,1012
2022-09-23T02:27:21.665Z,1012
2022-09-23T02:28:21.769Z,1012
2022-09-23T02:29:20.935Z,1012
2022-09-23T02:30:21.175Z,1012
2022-09-23T02:31:21.016Z,1012
2022-09-23T02:33:20.942Z,1012
2022-09-23T02:34:20.942Z,1012
2022-09-23T02:35:20.998Z,1012
2022-09-23T02:36:24.490Z,1012
2022-09-23T02:37:24.484Z,1011.9
2022-09-23T02:38:25.510Z,1011.9
2022-09-23T02:39:24.486Z,1011.9
2022-09-23T02:42:24.508Z,1011.9
2022-09-23T02:43:24.482Z,1011.9
2022-09-23T02:44:24.480Z,1011.9
2022-09-23T02:46:24.567Z,1011.9
2022-09-23T02:47:24.498Z,1011.9
2022-09-23T02:48:24.497Z,1011.8
2022-09-23T02:50:24.516Z,1011.9
2022-09-23T02:51:24.489Z,1011.9
2022-09-23T03:12:20.956Z,1011.7
2022-09-23T03:13:22.718Z,1011.7
2022-09-23T03:14:21.060Z,1011.7
2022-09-23T03:15:20.941Z,1011.7
2022-09-23T03:16:21.341Z,1011.7
2022-09-23T03:17:21.795Z,1011.7
2022-09-23T03:18:21.035Z,1011.7
2022-09-23T03:19:21.622Z,1011.7
2022-09-23T03:20:20.942Z,1011.7
2022-09-23T03:21:20.967Z,1011.7
2022-09-23T03:22:20.954Z,1011.7
2022-09-23T03:24:21.729Z,1011.6
2022-09-23T03:26:21.579Z,1011.6
2022-09-23T03:27:20.946Z,1011.6
2022-09-23T03:28:21.130Z,1011.6
2022-09-23T03:29:20.950Z,1011.7
2022-09-23T03:30:21.188Z,1011.6
2022-09-23T03:31:21.398Z,1011.6
2022-09-23T03:32:20.950Z,1011.7
2022-09-23T03:33:20.962Z,1011.6
2022-09-23T03:34:21.158Z,1011.6
2022-09-23T03:35:20.951Z,1011.6
2022-09-23T03:36:21.255Z,1011.6
2022-09-23T03:37:20.969Z,1011.6
2022-09-23T03:38:21.005Z,1011.6
2022-09-23T03:39:20.961Z,1011.6
2022-09-23T03:40:21.045Z,1011.6
2022-09-23T03:41:21.401Z,1011.6
2022-09-23T03:43:20.972Z,1011.6
2022-09-23T03:44:21.188Z,1011.6
2022-09-23T03:45:21.974Z,1011.6
2022-09-23T03:47:21.609Z,1011.6
2022-09-23T03:48:20.954Z,1011.6
2022-09-23T03:49:20.954Z,1011.6
2022-09-23T03:50:21.113Z,1011.7
2022-09-23T03:51:21.436Z,1011.6
2022-09-23T03:52:20.960Z,1011.6
2022-09-23T03:53:21.521Z,1011.6
2022-09-23T03:54:21.681Z,1011.6
2022-09-23T03:56:21.526Z,1011.6
2022-09-23T03:57:24.504Z,1011.6
2022-09-23T03:58:24.497Z,1011.6
2022-09-23T03:59:24.523Z,1011.5
2022-09-23T04:00:24.510Z,1011.5
2022-09-23T04:01:24.557Z,1011.5
2022-09-23T04:04:24.513Z,1011.5
2022-09-23T04:05:24.507Z,1011.4
2022-09-23T04:07:24.524Z,1011.4
2022-09-23T04:08:24.502Z,1011.5
2022-09-23T04:09:24.503Z,1011.4
2022-09-23T04:10:24.504Z,1011.4
2022-09-23T04:12:24.509Z,1011.4
2022-09-23T04:33:19.801Z,1011.2
2022-09-23T04:35:48.055Z,1011.2
2022-09-23T04:37:02.171Z,1011.2
2022-09-23T04:41:21.616Z,1011.2
2022-09-23T04:43:13.614Z,1011.2
2022-09-23T04:50:00.471Z,1011.1
2022-09-23T04:53:41.121Z,1011.1
2022-09-23T04:54:02.812Z,1011.1
2022-09-23T04:54:30.771Z,1011.1
2022-09-23T04:55:20.963Z,1011.1
2022-09-23T04:58:22.017Z,1011
2022-09-23T04:59:21.658Z,1011
2022-09-23T05:00:20.960Z,1011
2022-09-23T05:01:21.508Z,1011
2022-09-23T05:03:21.202Z,1011
2022-09-23T05:04:21.187Z,1011.1
2022-09-23T05:05:21.634Z,1011
2022-09-23T05:06:21.068Z,1011
2022-09-23T05:07:20.958Z,1011
2022-09-23T05:08:21.171Z,1011.1
2022-09-23T05:09:21.644Z,1011.1
2022-09-23T05:10:20.964Z,1011.1
2022-09-23T05:11:20.966Z,1011.1
2022-09-23T05:12:21.508Z,1011.1
2022-09-23T05:13:20.955Z,1011.1
2022-09-23T05:14:21.284Z,1011.2
2022-09-23T05:15:20.959Z,1011.1
2022-09-23T05:16:21.001Z,1011.2
2022-09-23T05:18:21.395Z,1011.2
2022-09-23T05:19:21.833Z,1011.2
2022-09-23T05:20:21.711Z,1011.2
2022-09-23T05:21:20.984Z,1011.1
2022-09-23T05:22:20.969Z,1011.2
2022-09-23T05:23:20.984Z,1011.2
2022-09-23T05:24:21.696Z,1011.2
2022-09-23T05:25:21.471Z,1011.2
2022-09-23T05:26:20.958Z,1011.2
2022-09-23T05:27:20.951Z,1011.2
2022-09-23T05:28:21.009Z,1011.2
2022-09-23T05:29:21.167Z,1011.2
2022-09-23T05:30:21.572Z,1011.2
2022-09-23T05:31:21.350Z,1011.2
2022-09-23T05:32:21.432Z,1011.2
2022-09-23T05:33:21.356Z,1011.2
2022-09-23T05:34:20.964Z,1011.2
2022-09-23T05:35:21.518Z,1011.2
2022-09-23T05:36:21.459Z,1011.2
2022-09-23T05:37:21.667Z,1011.2
2022-09-23T05:38:20.971Z,1011.2
2022-09-23T05:39:21.394Z,1011.2
2022-09-23T05:41:21.662Z,1011.2
2022-09-23T05:42:21.138Z,1011.2
2022-09-23T05:43:24.509Z,1011.2
2022-09-23T05:45:26.805Z,1011.2
2022-09-23T05:46:24.568Z,1011.2
2022-09-23T05:47:24.512Z,1011.1
2022-09-23T05:50:24.510Z,1011.2
2022-09-23T05:51:27.603Z,1011.1
2022-09-23T05:52:24.511Z,1011.1
2022-09-23T05:53:24.517Z,1011.1
2022-09-23T05:58:24.518Z,1011.2
2022-09-23T05:59:24.609Z,1011.2
2022-09-23T06:19:19.816Z,1011.2
2022-09-23T06:23:02.931Z,1011.2
2022-09-23T06:29:12.809Z,1011.2
2022-09-23T06:36:00.506Z,1011.2
2022-09-23T06:38:13.206Z,1011.1
2022-09-23T06:38:20.214Z,1011.2
2022-09-23T06:38:41.725Z,1011.2
2022-09-23T06:39:02.235Z,1011.2
2022-09-23T06:40:21.684Z,1011.1
2022-09-23T06:42:21.601Z,1011.2
2022-09-23T06:43:20.982Z,1011.2
2022-09-23T06:44:21.269Z,1011.2
2022-09-23T06:45:20.974Z,1011.1
2022-09-23T06:46:21.683Z,1011.1
2022-09-23T06:47:20.972Z,1011.2
2022-09-23T06:48:21.394Z,1011.2
2022-09-23T06:49:21.601Z,1011.2
2022-09-23T06:51:22.202Z,1011.2
2022-09-23T06:52:20.984Z,1011.2
2022-09-23T06:53:21.036Z,1011.2
2022-09-23T06:54:21.765Z,1011.2
2022-09-23T06:55:21.475Z,1011.2
2022-09-23T06:56:21.735Z,1011.2
2022-09-23T06:57:21.325Z,1011.2
2022-09-23T06:58:21.125Z,1011.2
2022-09-23T06:59:21.008Z,1011.2
2022-09-23T07:00:20.989Z,1011.3
2022-09-23T07:01:21.068Z,1011.3
2022-09-23T07:02:21.154Z,1011.2
2022-09-23T07:03:21.850Z,1011.3
2022-09-23T07:04:20.981Z,1011.2
2022-09-23T07:05:21.632Z,1011.2
2022-09-23T07:06:21.127Z,1011.2
2022-09-23T07:07:20.978Z,1011.2
2022-09-23T07:08:21.766Z,1011.2
2022-09-23T07:09:21.146Z,1011.2
2022-09-23T07:10:20.986Z,1011.2
2022-09-23T07:12:21.146Z,1011.2
2022-09-23T07:13:21.590Z,1011.2
2022-09-23T07:14:20.985Z,1011.2
2022-09-23T07:15:21.474Z,1011.2
2022-09-23T07:16:21.086Z,1011.2
2022-09-23T07:17:21.004Z,1011.2
2022-09-23T07:18:21.364Z,1011.2
2022-09-23T07:19:20.982Z,1011.2
2022-09-23T07:20:24.599Z,1011.2
2022-09-23T07:21:24.537Z,1011.2
2022-09-23T07:22:24.520Z,1011.2
2022-09-23T07:24:25.091Z,1011.2
2022-09-23T07:25:24.537Z,1011.2
2022-09-23T07:26:24.541Z,1011.2
2022-09-23T07:27:24.526Z,1011.1
2022-09-23T07:28:24.585Z,1011.2
2022-09-23T07:30:25.639Z,1011.2
2022-09-23T07:32:24.576Z,1011.2
2022-09-23T07:33:31.738Z,1011.3
2022-09-23T07:43:21.516Z,1011.3
2022-09-23T07:45:21.508Z,1011.3
2022-09-23T07:46:21.053Z,1011.3
2022-09-23T07:47:20.984Z,1011.3
2022-09-23T07:48:21.278Z,1011.3
2022-09-23T07:49:21.448Z,1011.3
2022-09-23T07:50:21.399Z,1011.3
2022-09-23T07:51:20.995Z,1011.3
2022-09-23T07:52:20.992Z,1011.3
2022-09-23T07:54:21.762Z,1011.3
2022-09-23T07:55:21.894Z,1011.3
2022-09-23T07:56:21.198Z,1011.3
2022-09-23T07:58:20.992Z,1011.3
2022-09-23T07:59:21.719Z,1011.4
2022-09-23T08:00:21.114Z,1011.4
2022-09-23T08:01:21.689Z,1011.3
2022-09-23T08:02:21.465Z,1011.4
2022-09-23T08:03:20.997Z,1011.3
2022-09-23T08:04:21.425Z,1011.3
2022-09-23T08:05:21.472Z,1011.3
2022-09-23T08:06:21.559Z,1011.3
2022-09-23T08:07:21.799Z,1011.4
2022-09-23T08:08:21.314Z,1011.3
2022-09-23T08:09:21.548Z,1011.3
2022-09-23T08:11:21.472Z,1011.3
2022-09-23T08:12:21.309Z,1011.3
2022-09-23T08:13:21.424Z,1011.4
2022-09-23T08:15:21.002Z,1011.4
2022-09-23T08:16:21.062Z,1011.4
2022-09-23T08:17:21.002Z,1011.4
2022-09-23T08:19:21.005Z,1011.4
2022-09-23T08:21:21.490Z,1011.4
2022-09-23T08:22:21.571Z,1011.3
2022-09-23T08:23:21.589Z,1011.4
2022-09-23T08:24:21.702Z,1011.4
2022-09-23T08:25:22.647Z,1011.4
2022-09-23T08:26:22.479Z,1011.4
2022-09-23T08:27:20.999Z,1011.3
2022-09-23T08:28:21.002Z,1011.3
2022-09-23T08:30:24.548Z,1011.3
2022-09-23T08:31:24.591Z,1011.4
2022-09-23T08:33:24.546Z,1011.3
2022-09-23T08:34:24.550Z,1011.4
2022-09-23T08:36:24.548Z,1011.3
2022-09-23T08:38:24.552Z,1011.3
2022-09-23T08:39:24.549Z,1011.3
2022-09-23T08:40:24.576Z,1011.3
2022-09-23T08:41:24.552Z,1011.3
2022-09-23T08:42:24.554Z,1011.3
2022-09-23T08:44:24.555Z,1011.3
2022-09-23T08:46:24.704Z,1011.3
2022-09-23T09:06:19.856Z,1011.2
2022-09-23T09:07:38.134Z,1011.2
2022-09-23T09:10:02.219Z,1011.1
2022-09-23T09:14:21.656Z,1011.2
2022-09-23T09:15:35.561Z,1011.2
2022-09-23T09:16:10.366Z,1011.2
2022-09-23T09:17:21.314Z,1011.2
2022-09-23T09:18:21.004Z,1011.2
2022-09-23T09:20:21.015Z,1011.2
2022-09-23T09:21:21.845Z,1011.2
2022-09-23T09:22:21.473Z,1011.2
2022-09-23T09:23:21.001Z,1011.2
2022-09-23T09:24:21.009Z,1011.2
2022-09-23T09:25:21.021Z,1011.2
2022-09-23T09:26:21.008Z,1011.2
2022-09-23T09:27:21.100Z,1011.2
2022-09-23T09:29:35.068Z,1011.2
2022-09-23T09:31:21.073Z,1011.2
2022-09-23T09:32:21.070Z,1011.2
2022-09-23T09:33:21.662Z,1011.1
2022-09-23T09:34:21.238Z,1011.2
2022-09-23T09:35:21.010Z,1011.1
2022-09-23T09:36:21.224Z,1011.1
2022-09-23T09:37:21.349Z,1011.1
2022-09-23T09:38:21.031Z,1011.2
2022-09-23T09:39:25.531Z,1011.2
2022-09-23T09:40:21.524Z,1011.2
2022-09-23T09:41:21.352Z,1011.1
2022-09-23T09:42:21.015Z,1011.1
2022-09-23T09:43:21.009Z,1011.1
2022-09-23T09:44:21.475Z,1011.2
2022-09-23T09:46:21.058Z,1011.1
2022-09-23T09:47:21.288Z,1011.1
2022-09-23T09:48:21.272Z,1011.2
2022-09-23T09:50:21.014Z,1011.1
2022-09-23T09:51:21.012Z,1011.2
2022-09-23T09:52:21.015Z,1011.2
2022-09-23T09:53:20.961Z,1011.1
2022-09-23T09:54:21.294Z,1011.1
2022-09-23T09:55:21.576Z,1011.1
2022-09-23T09:56:21.169Z,1011.1
2022-09-23T09:57:20.957Z,1011.1
2022-09-23T09:58:21.550Z,1011.1
2022-09-23T09:59:21.435Z,1011.1
2022-09-23T10:00:24.565Z,1011.1
2022-09-23T10:01:24.578Z,1011.1
2022-09-23T10:02:24.515Z,1011
2022-09-23T10:03:24.506Z,1011
2022-09-23T10:04:24.547Z,1011
2022-09-23T10:05:24.505Z,1011
2022-09-23T10:06:24.529Z,1011
2022-09-23T10:07:24.508Z,1010.9
2022-09-23T10:09:24.514Z,1010.9
2022-09-23T10:10:33.262Z,1010.9
2022-09-23T10:13:24.511Z,1010.9
2022-09-23T10:14:24.506Z,1010.9
2022-09-23T10:15:32.857Z,1011
2022-09-23T10:16:32.969Z,1010.9
2022-09-23T10:18:32.833Z,1010.9
2022-09-23T10:19:32.830Z,1010.9
2022-09-23T10:20:32.835Z,1010.9
2022-09-23T10:21:32.840Z,1010.9
2022-09-23T10:22:20.963Z,1011
2022-09-23T10:23:20.955Z,1010.9
2022-09-23T10:25:21.411Z,1010.9
2022-09-23T10:26:20.958Z,1010.9
2022-09-23T10:27:21.263Z,1011
2022-09-23T10:28:21.624Z,1010.9
2022-09-23T10:29:20.976Z,1010.9
2022-09-23T10:30:21.438Z,1011
2022-09-23T10:31:20.969Z,1011
2022-09-23T10:32:20.966Z,1011
2022-09-23T10:33:20.974Z,1011
2022-09-23T10:34:21.858Z,1011
2022-09-23T10:35:21.739Z,1011
2022-09-23T10:36:21.384Z,1010.9
2022-09-23T10:37:20.969Z,1011
2022-09-23T10:38:21.000Z,1011
2022-09-23T10:39:20.984Z,1011
2022-09-23T10:40:21.025Z,1011
2022-09-23T10:41:20.984Z,1011
2022-09-23T10:43:21.026Z,1010.9
2022-09-23T10:44:21.503Z,1011
2022-09-23T10:45:20.973Z,1011
2022-09-23T10:46:21.460Z,1010.9
2022-09-23T10:47:20.978Z,1010.9
2022-09-23T10:48:20.976Z,1010.9
2022-09-23T10:49:21.086Z,1010.9
2022-09-23T10:51:26.008Z,1010.8
2022-09-23T10:53:20.996Z,1010.8
2022-09-23T10:54:20.983Z,1010.8
2022-09-23T10:55:20.990Z,1010.8
2022-09-23T10:56:20.990Z,1010.8
2022-09-23T10:57:21.491Z,1010.7
2022-09-23T10:58:20.985Z,1010.8
2022-09-23T10:59:20.987Z,1010.8
2022-09-23T11:00:21.498Z,1010.8
2022-09-23T11:03:21.085Z,1010.7
2022-09-23T11:05:21.248Z,1010.7
2022-09-23T11:06:21.530Z,1010.7
2022-09-23T11:07:21.190Z,1010.7
2022-09-23T11:08:20.993Z,1010.7
2022-09-23T11:10:44.846Z,1010.7
2022-09-23T11:11:24.608Z,1010.7
2022-09-23T11:13:24.550Z,1010.7
2022-09-23T11:16:24.657Z,1010.6
2022-09-23T11:18:24.564Z,1010.6
2022-09-23T11:19:24.547Z,1010.6
2022-09-23T11:21:24.543Z,1010.6
2022-09-23T11:23:24.552Z,1010.6
2022-09-23T11:24:24.642Z,1010.6
2022-09-23T11:25:32.878Z,1010.5
2022-09-23T11:26:33.504Z,1010.6
2022-09-23T11:27:32.872Z,1010.5
2022-09-23T11:30:32.935Z,1010.4
2022-09-23T11:32:32.996Z,1010.5
2022-09-23T11:34:32.862Z,1010.4
2022-09-23T11:35:32.888Z,1010.4
2022-09-23T11:36:32.875Z,1010.4
2022-09-23T11:37:32.887Z,1010.4
2022-09-23T11:38:32.885Z,1010.4
2022-09-23T11:39:32.908Z,1010.4
2022-09-23T11:40:33.125Z,1010.4
2022-09-23T11:41:51.609Z,1010.4
2022-09-23T11:44:19.872Z,1010.4
2022-09-23T11:48:02.260Z,1010.4
2022-09-23T11:49:00.990Z,1010.3
2022-09-23T11:49:21.106Z,1010.4
2022-09-23T11:50:21.640Z,1010.4
2022-09-23T11:51:21.024Z,1010.4
2022-09-23T11:52:21.666Z,1010.3
2022-09-23T11:54:21.501Z,1010.4
2022-09-23T11:55:23.221Z,1010.4
2022-09-23T11:56:32.830Z,1010.4
2022-09-23T11:58:25.958Z,1010.4
2022-09-23T11:59:30.903Z,1010.3
2022-09-23T12:00:21.023Z,1010.3
2022-09-23T12:01:30.151Z,1010.3
2022-09-23T12:02:23.757Z,1010.3
2022-09-23T12:03:22.509Z,1010.3
2022-09-23T12:05:21.216Z,1010.3
2022-09-23T12:07:21.491Z,1010.3
2022-09-23T12:08:21.975Z,1010.3
2022-09-23T12:09:35.776Z,1010.2
2022-09-23T12:12:26.325Z,1010.2
2022-09-23T12:14:21.030Z,1010.2
2022-09-23T12:15:21.623Z,1010.2
2022-09-23T12:16:21.096Z,1010.2
2022-09-23T12:17:21.363Z,1010.2
2022-09-23T12:19:21.031Z,1010.2
2022-09-23T12:20:21.478Z,1010.2
2022-09-23T12:21:45.809Z,1010.1
2022-09-23T12:22:21.366Z,1010.1
2022-09-23T12:23:21.024Z,1010.1
2022-09-23T12:24:21.021Z,1010.1
2022-09-23T12:26:21.514Z,1010.1
2022-09-23T12:27:21.021Z,1010.1
2022-09-23T12:28:21.025Z,1010.1
2022-09-23T12:29:21.120Z,1010.1
2022-09-23T12:30:21.825Z,1010.1
2022-09-23T12:31:21.881Z,1010.1
2022-09-23T12:32:21.663Z,1010.1
2022-09-23T12:33:21.959Z,1010
2022-09-23T12:34:21.080Z,1010
2022-09-23T12:37:24.577Z,1010
2022-09-23T12:40:25.283Z,1010
2022-09-23T12:41:24.590Z,1010
2022-09-23T12:42:28.879Z,1010
2022-09-23T12:44:24.583Z,1010
2022-09-23T12:45:24.581Z,1010
2022-09-23T12:46:24.685Z,1009.9
2022-09-23T12:49:24.620Z,1009.9
2022-09-23T12:50:24.822Z,1009.9
2022-09-23T13:00:34.389Z,1009.9
2022-09-23T13:01:33.046Z,1009.9
2022-09-23T13:10:21.111Z,1009.8
2022-09-23T13:11:21.640Z,1009.8
2022-09-23T13:12:21.058Z,1009.8
2022-09-23T13:13:21.657Z,1009.8
2022-09-23T13:14:26.593Z,1009.8
2022-09-23T13:15:21.043Z,1009.8
2022-09-23T13:16:21.329Z,1009.8
2022-09-23T13:17:21.177Z,1009.8
2022-09-23T13:18:21.044Z,1009.7
2022-09-23T13:19:21.060Z,1009.8
2022-09-23T13:20:21.889Z,1009.8
2022-09-23T13:22:21.487Z,1009.7
2022-09-23T13:23:21.066Z,1009.7
2022-09-23T13:25:21.525Z,1009.6
2022-09-23T13:26:21.703Z,1009.7
2022-09-23T13:27:21.789Z,1009.6
2022-09-23T13:29:21.053Z,1009.6
2022-09-23T13:30:25.966Z,1009.6
2022-09-23T13:31:21.348Z,1009.6
2022-09-23T13:32:21.305Z,1009.6
2022-09-23T13:33:21.937Z,1009.7
2022-09-23T13:35:21.121Z,1009.6
2022-09-23T13:36:21.388Z,1009.6
2022-09-23T13:37:22.646Z,1009.6
2022-09-23T13:38:21.524Z,1009.6
2022-09-23T13:39:21.311Z,1009.6
2022-09-23T13:40:21.360Z,1009.6
2022-09-23T13:41:21.108Z,1009.6
2022-09-23T13:42:21.074Z,1009.6
2022-09-23T13:43:21.056Z,1009.6
2022-09-23T13:44:21.068Z,1009.6
2022-09-23T13:46:21.227Z,1009.6
2022-09-23T13:47:21.913Z,1009.6
2022-09-23T13:48:21.999Z,1009.6
2022-09-23T13:49:21.060Z,1009.6
2022-09-23T13:50:21.157Z,1009.6
2022-09-23T13:51:21.557Z,1009.6
2022-09-23T13:52:21.725Z,1009.6
2022-09-23T13:54:21.169Z,1009.6
2022-09-23T13:55:21.072Z,1009.6
2022-09-23T13:56:24.617Z,1009.6
2022-09-23T13:57:24.618Z,1009.6
2022-09-23T13:58:24.624Z,1009.6
2022-09-23T13:59:24.620Z,1009.6
2022-09-23T14:02:24.659Z,1009.6
2022-09-23T14:03:24.622Z,1009.5
2022-09-23T14:04:24.629Z,1009.6
2022-09-23T14:05:24.622Z,1009.6
2022-09-23T14:06:24.639Z,1009.5
2022-09-23T14:07:24.626Z,1009.5
2022-09-23T14:10:24.617Z,1009.5
2022-09-23T14:11:24.633Z,1009.4
2022-09-23T14:31:33.459Z,1009.3
2022-09-23T14:32:21.567Z,1009.2
2022-09-23T14:33:21.707Z,1009.2
2022-09-23T14:34:21.408Z,1009.2
2022-09-23T14:36:21.699Z,1009.2
2022-09-23T14:37:21.717Z,1009.2
2022-09-23T14:38:21.120Z,1009.2
2022-09-23T14:39:21.071Z,1009.2
2022-09-23T14:40:21.174Z,1009.2
2022-09-23T14:41:21.081Z,1009.2
2022-09-23T14:43:21.723Z,1009.2
2022-09-23T14:44:21.510Z,1009.2
2022-09-23T14:45:21.080Z,1009.2
2022-09-23T14:46:21.155Z,1009.3
2022-09-23T14:47:21.608Z,1009.2
2022-09-23T14:48:21.087Z,1009.2
2022-09-23T14:49:21.504Z,1009.1
2022-09-23T14:50:21.370Z,1009.1
2022-09-23T14:51:21.264Z,1009.2
2022-09-23T14:52:21.122Z,1009.2
2022-09-23T14:53:21.076Z,1009.1
2022-09-23T14:54:21.452Z,1009.1
2022-09-23T14:56:21.086Z,1009.1
2022-09-23T14:57:21.080Z,1009
2022-09-23T14:58:21.098Z,1009
2022-09-23T14:59:21.752Z,1009
2022-09-23T15:00:21.598Z,1009.1
2022-09-23T15:02:21.249Z,1009.1
2022-09-23T15:04:21.884Z,1009.1
2022-09-23T15:05:21.105Z,1009
2022-09-23T15:06:21.219Z,1009
2022-09-23T15:07:21.752Z,1009
2022-09-23T15:08:21.825Z,1009
2022-09-23T15:09:21.098Z,1009
2022-09-23T15:10:21.663Z,1009
2022-09-23T15:11:21.481Z,1009
2022-09-23T15:12:21.102Z,1008.9
2022-09-23T15:13:21.097Z,1009
2022-09-23T15:14:37.324Z,1008.9
2022-09-23T15:15:21.091Z,1009
2022-09-23T15:16:21.651Z,1008.9
2022-09-23T15:17:21.096Z,1008.9
2022-09-23T15:18:24.642Z,1008.9
2022-09-23T15:19:24.639Z,1008.9
2022-09-23T15:20:24.654Z,1008.9
2022-09-23T15:21:24.642Z,1008.9
2022-09-23T15:23:27.779Z,1008.9
2022-09-23T15:24:24.649Z,1008.9
2022-09-23T15:25:24.678Z,1008.9
2022-09-23T15:26:24.647Z,1008.9
2022-09-23T15:27:24.700Z,1008.9
2022-09-23T15:28:24.647Z,1008.9
2022-09-23T15:29:24.649Z,1008.9
2022-09-23T15:31:24.717Z,1008.9
2022-09-23T15:32:24.650Z,1009
2022-09-23T15:33:24.654Z,1008.9
2022-09-23T15:53:19.964Z,1008.8
2022-09-23T15:57:02.331Z,1008.9
2022-09-23T16:03:12.652Z,1008.9
2022-09-23T16:03:40.717Z,1008.8
2022-09-23T16:04:21.117Z,1008.8
2022-09-23T16:05:21.125Z,1008.9
2022-09-23T16:06:21.986Z,1008.8
2022-09-23T16:07:21.112Z,1008.8
2022-09-23T16:08:21.116Z,1008.8
2022-09-23T16:09:21.160Z,1008.9
2022-09-23T16:10:21.114Z,1008.8
2022-09-23T16:11:22.682Z,1008.8
2022-09-23T16:12:21.898Z,1008.8
2022-09-23T16:13:21.642Z,1008.8
2022-09-23T16:14:21.307Z,1008.9
2022-09-23T16:16:21.362Z,1008.9
2022-09-23T16:17:21.538Z,1008.8
2022-09-23T16:18:21.130Z,1008.9
2022-09-23T16:19:21.582Z,1008.8
2022-09-23T16:20:21.125Z,1008.9
2022-09-23T16:21:21.419Z,1008.9
2022-09-23T16:22:22.034Z,1008.9
2022-09-23T16:23:21.328Z,1008.9
2022-09-23T16:24:25.951Z,1008.9
2022-09-23T16:25:21.128Z,1008.8
2022-09-23T16:26:21.345Z,1008.8
2022-09-23T16:27:21.736Z,1008.8
2022-09-23T16:28:21.216Z,1008.8
2022-09-23T16:29:21.134Z,1008.8
2022-09-23T16:30:21.749Z,1008.8
2022-09-23T16:31:21.174Z,1008.8
2022-09-23T16:32:22.316Z,1008.8
2022-09-23T16:33:21.122Z,1008.8
2022-09-23T16:34:22.026Z,1008.8
2022-09-23T16:35:21.130Z,1008.8
2022-09-23T16:37:21.560Z,1008.8
2022-09-23T16:38:21.714Z,1008.8
2022-09-23T16:39:21.127Z,1008.8
2022-09-23T16:40:21.232Z,1008.8
2022-09-23T16:41:21.641Z,1008.8
2022-09-23T16:42:21.120Z,1008.8
2022-09-23T16:43:21.128Z,1008.7
2022-09-23T16:45:21.592Z,1008.7
2022-09-23T16:46:21.336Z,1008.6
2022-09-23T16:47:24.672Z,1008.7
2022-09-23T16:48:24.674Z,1008.7
2022-09-23T16:49:24.679Z,1008.7
2022-09-23T16:51:24.676Z,1008.7
2022-09-23T16:53:24.682Z,1008.8
2022-09-23T16:54:24.675Z,1008.7
2022-09-23T16:56:28.436Z,1008.8
2022-09-23T16:58:24.707Z,1008.7
2022-09-23T16:59:24.682Z,1008.7
2022-09-23T17:00:24.685Z,1008.7
2022-09-23T17:07:26.066Z,1008.7
2022-09-23T17:14:21.258Z,1008.8
2022-09-23T17:15:21.156Z,1008.8
2022-09-23T17:18:21.143Z,1008.8
2022-09-23T17:19:21.392Z,1008.8
2022-09-23T17:20:21.239Z,1008.8
2022-09-23T17:21:21.741Z,1008.9
2022-09-23T17:22:21.145Z,1008.8
2022-09-23T17:23:22.542Z,1008.8
2022-09-23T17:24:21.726Z,1008.9
2022-09-23T17:25:21.403Z,1008.9
2022-09-23T17:26:21.770Z,1008.9
2022-09-23T17:27:21.139Z,1008.9
2022-09-23T17:28:21.799Z,1008.8
2022-09-23T17:29:21.148Z,1008.9
2022-09-23T17:30:21.390Z,1008.9
2022-09-23T17:31:21.714Z,1008.9
2022-09-23T17:32:21.890Z,1008.9
2022-09-23T17:33:21.145Z,1008.9
2022-09-23T17:34:21.973Z,1008.9
2022-09-23T17:35:21.283Z,1008.9
2022-09-23T17:36:21.641Z,1008.9
2022-09-23T17:37:21.248Z,1008.9
2022-09-23T17:38:21.147Z,1008.9
2022-09-23T17:40:21.150Z,1008.9
2022-09-23T17:41:21.218Z,1008.9
2022-09-23T17:42:21.148Z,1008.9
2022-09-23T17:43:21.802Z,1008.9
2022-09-23T17:44:21.143Z,1008.9
2022-09-23T17:45:21.900Z,1008.9
2022-09-23T17:46:21.428Z,1008.8
2022-09-23T17:47:21.648Z,1008.8
2022-09-23T17:48:21.325Z,1008.8
2022-09-23T17:49:21.153Z,1008.8
2022-09-23T17:50:21.932Z,1008.7
2022-09-23T17:51:21.150Z,1008.8
2022-09-23T17:52:21.147Z,1008.7
2022-09-23T17:53:21.716Z,1008.7
2022-09-23T17:54:21.190Z,1008.7
2022-09-23T17:55:21.525Z,1008.6
2022-09-23T17:57:21.144Z,1008.7
2022-09-23T17:58:21.149Z,1008.6
2022-09-23T17:59:21.145Z,1008.6
2022-09-23T18:01:24.833Z,1008.6
2022-09-23T18:02:24.740Z,1008.6
2022-09-23T18:03:24.697Z,1008.6
2022-09-23T18:04:24.699Z,1008.6
2022-09-23T18:05:24.720Z,1008.6
2022-09-23T18:07:24.699Z,1008.6
2022-09-23T18:09:24.701Z,1008.7
2022-09-23T18:10:24.707Z,1008.7
2022-09-23T18:11:24.713Z,1008.6
2022-09-23T18:12:24.727Z,1008.6
2022-09-23T18:13:24.705Z,1008.6
2022-09-23T18:14:24.701Z,1008.6
2022-09-23T18:15:24.714Z,1008.6
2022-09-23T18:36:21.165Z,1008.5
2022-09-23T18:37:21.895Z,1008.6
2022-09-23T18:38:21.300Z,1008.5
2022-09-23T18:39:21.458Z,1008.6
2022-09-23T18:40:21.205Z,1008.6
2022-09-23T18:41:21.163Z,1008.6
2022-09-23T18:42:21.186Z,1008.6
2022-09-23T18:43:24.545Z,1008.6
2022-09-23T18:44:21.171Z,1008.6
2022-09-23T18:45:21.313Z,1008.7
2022-09-23T18:46:21.531Z,1008.6
2022-09-23T18:47:21.176Z,1008.6
2022-09-23T18:49:21.711Z,1008.6
2022-09-23T18:50:22.033Z,1008.6
2022-09-23T18:51:21.542Z,1008.6
2022-09-23T18:52:21.294Z,1008.6
2022-09-23T18:54:22.117Z,1008.7
2022-09-23T18:55:21.175Z,1008.7
2022-09-23T18:57:21.283Z,1008.7
2022-09-23T18:58:21.200Z,1008.7
2022-09-23T18:59:21.452Z,1008.7
2022-09-23T19:00:21.762Z,1008.7
2022-09-23T19:01:21.454Z,1008.7
2022-09-23T19:02:21.165Z,1008.6
2022-09-23T19:03:21.183Z,1008.6
2022-09-23T19:04:21.169Z,1008.6
2022-09-23T19:05:21.172Z,1008.6
2022-09-23T19:06:21.407Z,1008.7
2022-09-23T19:07:21.189Z,1008.6